sensor_id;sensor_type;location;lat;lon;timestamp;temperature;humidity
39875;DHT22;25547;52.530;13.194;2022-07-06T00:00:20;17.50;72.90
39875;DHT22;25547;52.530;13.194;2022-07-06T00:02:45;17.50;73.50
39875;DHT22;25547;52.530;13.194;2022-07-06T00:05:11;17.30;74.30
39875;DHT22;25547;52.530;13.194;2022-07-06T00:07:36;17.30;74.50
39875;DHT22;25547;52.530;13.194;2022-07-06T00:10:02;17.30;74.40
39875;DHT22;25547;52.530;13.194;2022-07-06T00:12:30;17.30;75.00
39875;DHT22;25547;52.530;13.194;2022-07-06T00:14:56;17.20;75.30
39875;DHT22;25547;52.530;13.194;2022-07-06T00:17:22;17.20;75.40
39875;DHT22;25547;52.530;13.194;2022-07-06T00:19:47;17.30;75.40
39875;DHT22;25547;52.530;13.194;2022-07-06T00:22:13;17.30;75.40
39875;DHT22;25547;52.530;13.194;2022-07-06T00:24:38;17.20;75.30
39875;DHT22;25547;52.530;13.194;2022-07-06T00:27:04;17.30;75.20
39875;DHT22;25547;52.530;13.194;2022-07-06T00:29:30;17.30;75.30
39875;DHT22;25547;52.530;13.194;2022-07-06T00:31:55;17.20;76.10
39875;DHT22;25547;52.530;13.194;2022-07-06T00:34:21;17.10;77.70
39875;DHT22;25547;52.530;13.194;2022-07-06T00:36:47;17.10;77.30
39875;DHT22;25547;52.530;13.194;2022-07-06T00:39:12;17.20;77.30
39875;DHT22;25547;52.530;13.194;2022-07-06T00:41:40;17.10;77.80
39875;DHT22;25547;52.530;13.194;2022-07-06T00:44:08;17.10;77.90
39875;DHT22;25547;52.530;13.194;2022-07-06T00:46:35;17.10;78.20
39875;DHT22;25547;52.530;13.194;2022-07-06T00:49:01;16.90;78.30
39875;DHT22;25547;52.530;13.194;2022-07-06T00:51:32;16.90;78.80
39875;DHT22;25547;52.530;13.194;2022-07-06T00:54:03;16.90;78.70
39875;DHT22;25547;52.530;13.194;2022-07-06T00:56:34;16.90;79.10
39875;DHT22;25547;52.530;13.194;2022-07-06T00:59:01;17.00;79.10
39875;DHT22;25547;52.530;13.194;2022-07-06T01:01:29;17.00;79.00
39875;DHT22;25547;52.530;13.194;2022-07-06T01:03:55;17.00;79.40
39875;DHT22;25547;52.530;13.194;2022-07-06T01:06:23;17.00;79.30
39875;DHT22;25547;52.530;13.194;2022-07-06T01:08:52;17.00;80.30
39875;DHT22;25547;52.530;13.194;2022-07-06T01:11:18;17.00;80.80
39875;DHT22;25547;52.530;13.194;2022-07-06T01:13:45;17.00;80.30
39875;DHT22;25547;52.530;13.194;2022-07-06T01:16:17;16.90;81.10
39875;DHT22;25547;52.530;13.194;2022-07-06T01:18:42;16.90;81.60
39875;DHT22;25547;52.530;13.194;2022-07-06T01:21:13;16.90;82.30
39875;DHT22;25547;52.530;13.194;2022-07-06T01:23:43;16.80;82.50
39875;DHT22;25547;52.530;13.194;2022-07-06T01:26:17;16.90;82.60
39875;DHT22;25547;52.530;13.194;2022-07-06T01:28:46;16.90;82.80
39875;DHT22;25547;52.530;13.194;2022-07-06T01:31:22;16.80;83.30
39875;DHT22;25547;52.530;13.194;2022-07-06T01:33:53;16.80;83.30
39875;DHT22;25547;52.530;13.194;2022-07-06T01:36:23;16.90;83.60
39875;DHT22;25547;52.530;13.194;2022-07-06T01:38:51;16.80;83.80
39875;DHT22;25547;52.530;13.194;2022-07-06T01:41:20;16.90;83.20
39875;DHT22;25547;52.530;13.194;2022-07-06T01:43:46;16.90;83.00
39875;DHT22;25547;52.530;13.194;2022-07-06T01:46:12;17.00;83.00
39875;DHT22;25547;52.530;13.194;2022-07-06T01:48:40;16.90;83.50
39875;DHT22;25547;52.530;13.194;2022-07-06T01:51:08;16.90;84.10
39875;DHT22;25547;52.530;13.194;2022-07-06T01:53:34;16.90;84.00
39875;DHT22;25547;52.530;13.194;2022-07-06T01:56:00;16.90;83.90
39875;DHT22;25547;52.530;13.194;2022-07-06T01:58:25;16.90;84.70
39875;DHT22;25547;52.530;13.194;2022-07-06T02:00:51;16.90;85.00
39875;DHT22;25547;52.530;13.194;2022-07-06T02:03:17;16.90;85.50
39875;DHT22;25547;52.530;13.194;2022-07-06T02:05:42;16.80;87.20
39875;DHT22;25547;52.530;13.194;2022-07-06T02:08:08;16.80;88.80
39875;DHT22;25547;52.530;13.194;2022-07-06T02:10:33;16.70;90.90
39875;DHT22;25547;52.530;13.194;2022-07-06T02:13:02;16.70;92.40
39875;DHT22;25547;52.530;13.194;2022-07-06T02:15:30;16.50;94.70
39875;DHT22;25547;52.530;13.194;2022-07-06T02:17:56;16.30;97.90
39875;DHT22;25547;52.530;13.194;2022-07-06T02:20:24;16.20;99.90
39875;DHT22;25547;52.530;13.194;2022-07-06T02:22:49;16.00;99.90
39875;DHT22;25547;52.530;13.194;2022-07-06T02:25:15;16.00;99.90
39875;DHT22;25547;52.530;13.194;2022-07-06T02:27:40;16.00;99.90
39875;DHT22;25547;52.530;13.194;2022-07-06T02:30:09;15.90;99.90
39875;DHT22;25547;52.530;13.194;2022-07-06T02:32:34;15.90;99.90
39875;DHT22;25547;52.530;13.194;2022-07-06T02:35:00;15.90;99.90
39875;DHT22;25547;52.530;13.194;2022-07-06T02:37:25;15.90;99.90
39875;DHT22;25547;52.530;13.194;2022-07-06T02:39:51;16.00;99.90
39875;DHT22;25547;52.530;13.194;2022-07-06T02:42:17;15.80;99.90
39875;DHT22;25547;52.530;13.194;2022-07-06T02:44:42;15.90;99.90
39875;DHT22;25547;52.530;13.194;2022-07-06T02:47:08;15.90;99.90
39875;DHT22;25547;52.530;13.194;2022-07-06T02:49:33;15.90;99.90
39875;DHT22;25547;52.530;13.194;2022-07-06T02:52:02;15.90;99.90
39875;DHT22;25547;52.530;13.194;2022-07-06T02:54:27;15.90;99.90
39875;DHT22;25547;52.530;13.194;2022-07-06T02:56:55;15.80;99.90
39875;DHT22;25547;52.530;13.194;2022-07-06T02:59:21;15.90;99.90
39875;DHT22;25547;52.530;13.194;2022-07-06T03:01:46;15.90;99.90
39875;DHT22;25547;52.530;13.194;2022-07-06T03:04:14;16.00;99.90
39875;DHT22;25547;52.530;13.194;2022-07-06T03:06:40;15.90;99.90
39875;DHT22;25547;52.530;13.194;2022-07-06T03:09:08;15.90;99.90
39875;DHT22;25547;52.530;13.194;2022-07-06T03:11:33;15.80;99.90
39875;DHT22;25547;52.530;13.194;2022-07-06T03:14:05;15.70;99.90
39875;DHT22;25547;52.530;13.194;2022-07-06T03:16:31;15.70;99.90
39875;DHT22;25547;52.530;13.194;2022-07-06T03:18:59;15.70;99.90
39875;DHT22;25547;52.530;13.194;2022-07-06T03:21:27;15.60;99.90
39875;DHT22;25547;52.530;13.194;2022-07-06T03:23:55;15.60;99.90
39875;DHT22;25547;52.530;13.194;2022-07-06T03:26:23;15.60;99.90
39875;DHT22;25547;52.530;13.194;2022-07-06T03:28:51;15.70;99.90
39875;DHT22;25547;52.530;13.194;2022-07-06T03:31:19;15.80;99.90
39875;DHT22;25547;52.530;13.194;2022-07-06T03:33:45;15.70;99.90
39875;DHT22;25547;52.530;13.194;2022-07-06T03:36:11;15.50;99.90
39875;DHT22;25547;52.530;13.194;2022-07-06T03:38:36;15.50;99.90
39875;DHT22;25547;52.530;13.194;2022-07-06T03:41:02;15.40;99.90
39875;DHT22;25547;52.530;13.194;2022-07-06T03:43:30;15.40;99.90
39875;DHT22;25547;52.530;13.194;2022-07-06T03:45:56;15.40;99.90
39875;DHT22;25547;52.530;13.194;2022-07-06T03:48:24;15.50;99.90
39875;DHT22;25547;52.530;13.194;2022-07-06T03:50:50;15.50;99.90
39875;DHT22;25547;52.530;13.194;2022-07-06T03:53:17;15.60;99.90
39875;DHT22;25547;52.530;13.194;2022-07-06T03:55:45;15.70;99.90
39875;DHT22;25547;52.530;13.194;2022-07-06T03:58:34;15.90;99.90
39875;DHT22;25547;52.530;13.194;2022-07-06T04:01:00;16.00;99.90
39875;DHT22;25547;52.530;13.194;2022-07-06T04:03:28;16.00;99.90
39875;DHT22;25547;52.530;13.194;2022-07-06T04:05:56;16.10;99.90
39875;DHT22;25547;52.530;13.194;2022-07-06T04:08:22;16.20;99.90
39875;DHT22;25547;52.530;13.194;2022-07-06T04:10:49;16.40;99.90
39875;DHT22;25547;52.530;13.194;2022-07-06T04:13:15;16.60;99.90
39875;DHT22;25547;52.530;13.194;2022-07-06T04:15:41;16.50;99.90
39875;DHT22;25547;52.530;13.194;2022-07-06T04:18:06;16.60;99.90
39875;DHT22;25547;52.530;13.194;2022-07-06T04:20:32;16.50;99.90
39875;DHT22;25547;52.530;13.194;2022-07-06T04:22:58;16.30;99.90
39875;DHT22;25547;52.530;13.194;2022-07-06T04:25:24;16.30;99.90
39875;DHT22;25547;52.530;13.194;2022-07-06T04:27:49;16.30;99.90
39875;DHT22;25547;52.530;13.194;2022-07-06T04:30:17;16.20;99.90
39875;DHT22;25547;52.530;13.194;2022-07-06T04:32:45;16.30;99.90
39875;DHT22;25547;52.530;13.194;2022-07-06T04:35:11;16.30;99.90
39875;DHT22;25547;52.530;13.194;2022-07-06T04:37:37;16.20;99.90
39875;DHT22;25547;52.530;13.194;2022-07-06T04:40:03;16.40;99.90
39875;DHT22;25547;52.530;13.194;2022-07-06T04:42:29;16.30;99.90
39875;DHT22;25547;52.530;13.194;2022-07-06T04:44:55;16.40;99.90
39875;DHT22;25547;52.530;13.194;2022-07-06T04:47:21;16.40;99.90
39875;DHT22;25547;52.530;13.194;2022-07-06T04:49:46;16.50;99.90
39875;DHT22;25547;52.530;13.194;2022-07-06T04:52:12;16.70;99.90
39875;DHT22;25547;52.530;13.194;2022-07-06T04:54:40;16.90;99.90
39875;DHT22;25547;52.530;13.194;2022-07-06T04:57:08;16.80;99.90
39875;DHT22;25547;52.530;13.194;2022-07-06T04:59:33;16.90;99.90
39875;DHT22;25547;52.530;13.194;2022-07-06T05:02:02;17.10;99.90
39875;DHT22;25547;52.530;13.194;2022-07-06T05:04:27;17.20;99.90
39875;DHT22;25547;52.530;13.194;2022-07-06T05:06:55;17.30;98.60
39875;DHT22;25547;52.530;13.194;2022-07-06T05:09:21;17.20;99.40
39875;DHT22;25547;52.530;13.194;2022-07-06T05:11:46;17.20;98.70
39875;DHT22;25547;52.530;13.194;2022-07-06T05:14:14;17.30;98.80
39875;DHT22;25547;52.530;13.194;2022-07-06T05:16:40;17.30;98.80
39875;DHT22;25547;52.530;13.194;2022-07-06T05:19:05;17.20;98.90
39875;DHT22;25547;52.530;13.194;2022-07-06T05:21:31;17.20;99.40
39875;DHT22;25547;52.530;13.194;2022-07-06T05:23:57;17.30;98.80
39875;DHT22;25547;52.530;13.194;2022-07-06T05:26:22;17.10;98.60
39875;DHT22;25547;52.530;13.194;2022-07-06T05:28:48;17.20;98.40
39875;DHT22;25547;52.530;13.194;2022-07-06T05:31:13;17.10;98.40
39875;DHT22;25547;52.530;13.194;2022-07-06T05:33:39;17.00;98.00
39875;DHT22;25547;52.530;13.194;2022-07-06T05:36:05;17.20;97.90
39875;DHT22;25547;52.530;13.194;2022-07-06T05:38:30;17.40;97.70
39875;DHT22;25547;52.530;13.194;2022-07-06T05:40:56;17.30;97.90
39875;DHT22;25547;52.530;13.194;2022-07-06T05:43:22;17.30;96.90
39875;DHT22;25547;52.530;13.194;2022-07-06T05:45:47;17.40;96.60
39875;DHT22;25547;52.530;13.194;2022-07-06T05:48:13;17.50;95.90
39875;DHT22;25547;52.530;13.194;2022-07-06T05:50:57;17.70;95.80
39875;DHT22;25547;52.530;13.194;2022-07-06T05:53:22;17.70;96.00
39875;DHT22;25547;52.530;13.194;2022-07-06T05:55:48;17.80;95.90
39875;DHT22;25547;52.530;13.194;2022-07-06T05:58:16;18.10;94.30
39875;DHT22;25547;52.530;13.194;2022-07-06T06:00:42;18.90;92.80
39875;DHT22;25547;52.530;13.194;2022-07-06T06:03:10;22.60;82.70
39875;DHT22;25547;52.530;13.194;2022-07-06T06:05:35;25.40;68.00
39875;DHT22;25547;52.530;13.194;2022-07-06T06:08:01;24.60;63.50
39875;DHT22;25547;52.530;13.194;2022-07-06T06:10:27;22.40;68.20
39875;DHT22;25547;52.530;13.194;2022-07-06T06:12:53;21.30;73.50
39875;DHT22;25547;52.530;13.194;2022-07-06T06:15:21;20.40;78.10
39875;DHT22;25547;52.530;13.194;2022-07-06T06:17:46;19.90;80.80
39875;DHT22;25547;52.530;13.194;2022-07-06T06:20:17;19.70;83.00
39875;DHT22;25547;52.530;13.194;2022-07-06T06:22:49;19.90;82.50
39875;DHT22;25547;52.530;13.194;2022-07-06T06:25:16;20.00;81.10
39875;DHT22;25547;52.530;13.194;2022-07-06T06:27:42;20.10;81.00
39875;DHT22;25547;52.530;13.194;2022-07-06T06:30:09;20.00;81.40
39875;DHT22;25547;52.530;13.194;2022-07-06T06:32:35;19.80;82.00
39875;DHT22;25547;52.530;13.194;2022-07-06T06:35:03;19.40;84.80
39875;DHT22;25547;52.530;13.194;2022-07-06T06:37:35;19.50;84.20
39875;DHT22;25547;52.530;13.194;2022-07-06T06:40:03;19.70;82.20
39875;DHT22;25547;52.530;13.194;2022-07-06T06:42:29;19.40;82.80
39875;DHT22;25547;52.530;13.194;2022-07-06T06:44:55;19.50;83.50
39875;DHT22;25547;52.530;13.194;2022-07-06T06:47:21;19.60;82.80
39875;DHT22;25547;52.530;13.194;2022-07-06T06:49:48;19.50;82.50
39875;DHT22;25547;52.530;13.194;2022-07-06T06:52:14;19.90;82.60
39875;DHT22;25547;52.530;13.194;2022-07-06T06:54:42;20.10;81.40
39875;DHT22;25547;52.530;13.194;2022-07-06T06:57:08;20.20;79.90
39875;DHT22;25547;52.530;13.194;2022-07-06T06:59:33;20.20;81.60
39875;DHT22;25547;52.530;13.194;2022-07-06T07:02:02;20.20;80.00
39875;DHT22;25547;52.530;13.194;2022-07-06T07:04:27;19.80;80.30
39875;DHT22;25547;52.530;13.194;2022-07-06T07:06:57;19.60;80.00
39875;DHT22;25547;52.530;13.194;2022-07-06T07:09:22;21.30;77.00
39875;DHT22;25547;52.530;13.194;2022-07-06T07:11:50;25.10;65.30
39875;DHT22;25547;52.530;13.194;2022-07-06T07:14:16;27.40;54.40
39875;DHT22;25547;52.530;13.194;2022-07-06T07:16:42;25.60;52.80
39875;DHT22;25547;52.530;13.194;2022-07-06T07:19:09;23.80;56.60
39875;DHT22;25547;52.530;13.194;2022-07-06T07:21:35;22.30;59.30
39875;DHT22;25547;52.530;13.194;2022-07-06T07:24:00;21.80;63.10
39875;DHT22;25547;52.530;13.194;2022-07-06T07:26:26;22.40;61.00
39875;DHT22;25547;52.530;13.194;2022-07-06T07:28:54;25.40;57.10
39875;DHT22;25547;52.530;13.194;2022-07-06T07:31:19;28.90;47.30
39875;DHT22;25547;52.530;13.194;2022-07-06T07:33:47;25.80;48.40
39875;DHT22;25547;52.530;13.194;2022-07-06T07:36:13;25.20;51.70
39875;DHT22;25547;52.530;13.194;2022-07-06T07:38:39;23.50;54.80
39875;DHT22;25547;52.530;13.194;2022-07-06T07:41:04;28.70;51.70
39875;DHT22;25547;52.530;13.194;2022-07-06T07:43:31;26.00;48.30
39875;DHT22;25547;52.530;13.194;2022-07-06T07:45:57;26.50;50.80
39875;DHT22;25547;52.530;13.194;2022-07-06T07:48:22;28.50;47.50
39875;DHT22;25547;52.530;13.194;2022-07-06T07:50:50;28.80;46.70
39875;DHT22;25547;52.530;13.194;2022-07-06T07:53:18;27.00;46.80
39875;DHT22;25547;52.530;13.194;2022-07-06T07:55:44;26.40;48.40
39875;DHT22;25547;52.530;13.194;2022-07-06T07:58:09;31.20;44.80
39875;DHT22;25547;52.530;13.194;2022-07-06T08:00:35;31.00;41.40
39875;DHT22;25547;52.530;13.194;2022-07-06T08:03:01;29.80;43.00
39875;DHT22;25547;52.530;13.194;2022-07-06T08:05:27;29.70;42.60
39875;DHT22;25547;52.530;13.194;2022-07-06T08:07:52;28.40;42.70
39875;DHT22;25547;52.530;13.194;2022-07-06T08:10:20;28.80;42.10
39875;DHT22;25547;52.530;13.194;2022-07-06T08:12:48;26.90;45.70
39875;DHT22;25547;52.530;13.194;2022-07-06T08:15:14;27.40;44.70
39875;DHT22;25547;52.530;13.194;2022-07-06T08:17:39;27.30;44.80
39875;DHT22;25547;52.530;13.194;2022-07-06T08:20:06;25.70;46.80
39875;DHT22;25547;52.530;13.194;2022-07-06T08:22:32;24.20;50.40
39875;DHT22;25547;52.530;13.194;2022-07-06T08:24:57;23.10;53.10
39875;DHT22;25547;52.530;13.194;2022-07-06T08:27:23;22.40;54.80
39875;DHT22;25547;52.530;13.194;2022-07-06T08:29:51;23.30;53.80
39875;DHT22;25547;52.530;13.194;2022-07-06T08:32:17;23.70;52.20
39875;DHT22;25547;52.530;13.194;2022-07-06T08:34:45;23.90;52.60
39875;DHT22;25547;52.530;13.194;2022-07-06T08:37:11;23.20;52.80
39875;DHT22;25547;52.530;13.194;2022-07-06T08:39:37;22.70;54.00
39875;DHT22;25547;52.530;13.194;2022-07-06T08:42:02;22.10;54.90
39875;DHT22;25547;52.530;13.194;2022-07-06T08:44:29;22.10;55.50
39875;DHT22;25547;52.530;13.194;2022-07-06T08:46:54;22.10;55.10
39875;DHT22;25547;52.530;13.194;2022-07-06T08:49:25;21.90;55.50
39875;DHT22;25547;52.530;13.194;2022-07-06T08:51:54;21.60;55.70
39875;DHT22;25547;52.530;13.194;2022-07-06T08:54:22;21.80;55.70
39875;DHT22;25547;52.530;13.194;2022-07-06T08:56:51;21.60;56.00
39875;DHT22;25547;52.530;13.194;2022-07-06T08:59:17;22.10;56.20
39875;DHT22;25547;52.530;13.194;2022-07-06T09:01:44;22.60;54.10
39875;DHT22;25547;52.530;13.194;2022-07-06T09:04:12;22.40;53.00
39875;DHT22;25547;52.530;13.194;2022-07-06T09:06:41;22.50;52.50
39875;DHT22;25547;52.530;13.194;2022-07-06T09:09:07;22.50;52.20
39875;DHT22;25547;52.530;13.194;2022-07-06T09:11:37;22.20;52.60
39875;DHT22;25547;52.530;13.194;2022-07-06T09:14:03;22.10;52.80
39875;DHT22;25547;52.530;13.194;2022-07-06T09:16:29;22.00;52.20
39875;DHT22;25547;52.530;13.194;2022-07-06T09:18:55;22.20;53.70
39875;DHT22;25547;52.530;13.194;2022-07-06T09:21:28;22.10;52.80
39875;DHT22;25547;52.530;13.194;2022-07-06T09:23:58;21.80;53.20
39875;DHT22;25547;52.530;13.194;2022-07-06T09:26:27;21.50;51.00
39875;DHT22;25547;52.530;13.194;2022-07-06T09:28:55;21.50;52.00
39875;DHT22;25547;52.530;13.194;2022-07-06T09:31:24;21.30;52.80
39875;DHT22;25547;52.530;13.194;2022-07-06T09:34:07;21.00;53.40
39875;DHT22;25547;52.530;13.194;2022-07-06T09:36:45;21.00;53.70
39875;DHT22;25547;52.530;13.194;2022-07-06T09:39:26;21.00;54.40
39875;DHT22;25547;52.530;13.194;2022-07-06T09:41:55;20.80;55.50
39875;DHT22;25547;52.530;13.194;2022-07-06T09:44:31;20.90;55.70
39875;DHT22;25547;52.530;13.194;2022-07-06T09:47:01;20.70;56.20
39875;DHT22;25547;52.530;13.194;2022-07-06T09:49:27;20.50;57.00
39875;DHT22;25547;52.530;13.194;2022-07-06T09:51:58;20.30;57.20
39875;DHT22;25547;52.530;13.194;2022-07-06T09:54:24;20.60;57.30
39875;DHT22;25547;52.530;13.194;2022-07-06T09:56:50;20.70;57.60
39875;DHT22;25547;52.530;13.194;2022-07-06T09:59:26;20.80;57.30
39875;DHT22;25547;52.530;13.194;2022-07-06T10:02:00;20.80;58.10
39875;DHT22;25547;52.530;13.194;2022-07-06T10:04:27;20.50;58.00
39875;DHT22;25547;52.530;13.194;2022-07-06T10:06:54;20.40;58.40
39875;DHT22;25547;52.530;13.194;2022-07-06T10:09:22;20.40;58.60
39875;DHT22;25547;52.530;13.194;2022-07-06T10:11:56;20.30;59.20
39875;DHT22;25547;52.530;13.194;2022-07-06T10:14:27;20.20;59.90
39875;DHT22;25547;52.530;13.194;2022-07-06T10:16:55;20.30;60.10
39875;DHT22;25547;52.530;13.194;2022-07-06T10:19:24;20.30;60.30
39875;DHT22;25547;52.530;13.194;2022-07-06T10:21:50;20.30;60.10
39875;DHT22;25547;52.530;13.194;2022-07-06T10:24:22;20.50;60.00
39875;DHT22;25547;52.530;13.194;2022-07-06T10:26:48;20.60;59.70
39875;DHT22;25547;52.530;13.194;2022-07-06T10:29:19;20.70;59.40
39875;DHT22;25547;52.530;13.194;2022-07-06T10:31:45;21.00;59.20
39875;DHT22;25547;52.530;13.194;2022-07-06T10:34:13;21.20;58.20
39875;DHT22;25547;52.530;13.194;2022-07-06T10:36:40;21.30;57.60
39875;DHT22;25547;52.530;13.194;2022-07-06T10:39:07;21.10;56.90
39875;DHT22;25547;52.530;13.194;2022-07-06T10:41:57;21.20;56.50
39875;DHT22;25547;52.530;13.194;2022-07-06T10:44:24;21.00;55.60
39875;DHT22;25547;52.530;13.194;2022-07-06T10:46:52;21.00;56.10
39875;DHT22;25547;52.530;13.194;2022-07-06T10:49:18;21.10;55.90
39875;DHT22;25547;52.530;13.194;2022-07-06T10:51:44;21.20;55.70
39875;DHT22;25547;52.530;13.194;2022-07-06T10:54:10;21.30;56.20
39875;DHT22;25547;52.530;13.194;2022-07-06T10:56:42;21.20;56.00
39875;DHT22;25547;52.530;13.194;2022-07-06T11:01:37;21.00;56.80
39875;DHT22;25547;52.530;13.194;2022-07-06T11:04:07;20.70;57.50
39875;DHT22;25547;52.530;13.194;2022-07-06T11:06:35;20.50;58.30
39875;DHT22;25547;52.530;13.194;2022-07-06T11:09:10;20.40;58.10
39875;DHT22;25547;52.530;13.194;2022-07-06T11:14:22;20.50;57.90
39875;DHT22;25547;52.530;13.194;2022-07-06T11:19:22;20.70;57.90
39875;DHT22;25547;52.530;13.194;2022-07-06T11:24:29;20.80;57.70
39875;DHT22;25547;52.530;13.194;2022-07-06T11:26:57;20.70;57.70
39875;DHT22;25547;52.530;13.194;2022-07-06T11:29:25;21.00;57.20
39875;DHT22;25547;52.530;13.194;2022-07-06T11:31:52;21.10;56.90
39875;DHT22;25547;52.530;13.194;2022-07-06T11:34:20;21.10;56.60
39875;DHT22;25547;52.530;13.194;2022-07-06T11:36:54;21.30;57.60
39875;DHT22;25547;52.530;13.194;2022-07-06T11:39:20;21.10;56.30
39875;DHT22;25547;52.530;13.194;2022-07-06T11:41:46;21.20;56.50
39875;DHT22;25547;52.530;13.194;2022-07-06T11:44:14;21.20;56.00
39875;DHT22;25547;52.530;13.194;2022-07-06T11:46:39;21.40;55.90
39875;DHT22;25547;52.530;13.194;2022-07-06T11:49:07;21.50;55.50
39875;DHT22;25547;52.530;13.194;2022-07-06T11:51:38;21.40;55.80
39875;DHT22;25547;52.530;13.194;2022-07-06T11:56:35;21.30;55.90
39875;DHT22;25547;52.530;13.194;2022-07-06T11:59:05;21.20;56.20
39875;DHT22;25547;52.530;13.194;2022-07-06T12:01:31;21.30;56.30
39875;DHT22;25547;52.530;13.194;2022-07-06T12:03:58;21.10;56.70
39875;DHT22;25547;52.530;13.194;2022-07-06T12:06:26;20.90;57.70
39875;DHT22;25547;52.530;13.194;2022-07-06T12:08:53;21.00;57.80
39875;DHT22;25547;52.530;13.194;2022-07-06T12:11:22;21.10;57.60
39875;DHT22;25547;52.530;13.194;2022-07-06T12:13:50;21.20;57.40
39875;DHT22;25547;52.530;13.194;2022-07-06T12:16:16;21.10;58.00
39875;DHT22;25547;52.530;13.194;2022-07-06T12:18:44;21.20;58.00
39875;DHT22;25547;52.530;13.194;2022-07-06T12:21:21;21.20;57.30
39875;DHT22;25547;52.530;13.194;2022-07-06T12:23:52;21.10;58.00
39875;DHT22;25547;52.530;13.194;2022-07-06T12:26:23;21.20;58.00
39875;DHT22;25547;52.530;13.194;2022-07-06T12:31:33;21.20;57.80
39875;DHT22;25547;52.530;13.194;2022-07-06T12:33:59;21.20;57.90
39875;DHT22;25547;52.530;13.194;2022-07-06T12:36:24;21.30;58.00
39875;DHT22;25547;52.530;13.194;2022-07-06T12:38:50;21.30;57.60
39875;DHT22;25547;52.530;13.194;2022-07-06T12:41:33;21.10;57.40
39875;DHT22;25547;52.530;13.194;2022-07-06T12:44:09;21.10;57.40
39875;DHT22;25547;52.530;13.194;2022-07-06T12:49:04;21.10;56.70
39875;DHT22;25547;52.530;13.194;2022-07-06T12:51:57;21.20;56.50
39875;DHT22;25547;52.530;13.194;2022-07-06T12:54:25;21.20;56.10
39875;DHT22;25547;52.530;13.194;2022-07-06T12:57:01;21.40;55.40
39875;DHT22;25547;52.530;13.194;2022-07-06T12:59:26;21.30;54.80
39875;DHT22;25547;52.530;13.194;2022-07-06T13:01:56;21.30;55.00
39875;DHT22;25547;52.530;13.194;2022-07-06T13:04:27;21.40;55.50
39875;DHT22;25547;52.530;13.194;2022-07-06T13:06:55;21.40;55.30
39875;DHT22;25547;52.530;13.194;2022-07-06T13:09:21;21.50;55.10
39875;DHT22;25547;52.530;13.194;2022-07-06T13:11:48;21.50;54.80
39875;DHT22;25547;52.530;13.194;2022-07-06T13:14:15;21.40;55.20
39875;DHT22;25547;52.530;13.194;2022-07-06T13:16:42;21.20;55.60
39875;DHT22;25547;52.530;13.194;2022-07-06T13:19:08;21.10;55.90
39875;DHT22;25547;52.530;13.194;2022-07-06T13:21:34;21.10;55.90
39875;DHT22;25547;52.530;13.194;2022-07-06T13:24:01;21.10;56.30
39875;DHT22;25547;52.530;13.194;2022-07-06T13:26:27;21.10;56.50
39875;DHT22;25547;52.530;13.194;2022-07-06T13:28:55;21.10;56.70
39875;DHT22;25547;52.530;13.194;2022-07-06T13:31:23;21.20;56.40
39875;DHT22;25547;52.530;13.194;2022-07-06T13:33:51;21.30;56.60
39875;DHT22;25547;52.530;13.194;2022-07-06T13:36:16;21.40;56.10
39875;DHT22;25547;52.530;13.194;2022-07-06T13:38:42;21.30;54.60
39875;DHT22;25547;52.530;13.194;2022-07-06T13:41:10;21.50;54.60
39875;DHT22;25547;52.530;13.194;2022-07-06T13:43:36;21.60;54.30
39875;DHT22;25547;52.530;13.194;2022-07-06T13:46:05;21.50;53.30
39875;DHT22;25547;52.530;13.194;2022-07-06T13:48:32;21.40;53.30
39875;DHT22;25547;52.530;13.194;2022-07-06T13:51:01;21.50;54.10
39875;DHT22;25547;52.530;13.194;2022-07-06T13:53:27;21.40;52.50
39875;DHT22;25547;52.530;13.194;2022-07-06T13:55:52;21.30;53.00
39875;DHT22;25547;52.530;13.194;2022-07-06T13:58:19;21.20;52.80
39875;DHT22;25547;52.530;13.194;2022-07-06T14:00:47;21.30;53.70
39875;DHT22;25547;52.530;13.194;2022-07-06T14:03:13;21.30;53.50
39875;DHT22;25547;52.530;13.194;2022-07-06T14:05:38;21.40;53.70
39875;DHT22;25547;52.530;13.194;2022-07-06T14:08:06;21.20;53.60
39875;DHT22;25547;52.530;13.194;2022-07-06T14:10:32;21.20;53.90
39875;DHT22;25547;52.530;13.194;2022-07-06T14:13:00;21.30;54.20
39875;DHT22;25547;52.530;13.194;2022-07-06T14:15:26;21.10;54.50
39875;DHT22;25547;52.530;13.194;2022-07-06T14:17:51;21.30;54.80
39875;DHT22;25547;52.530;13.194;2022-07-06T14:20:20;21.40;54.40
39875;DHT22;25547;52.530;13.194;2022-07-06T14:22:47;21.20;54.20
39875;DHT22;25547;52.530;13.194;2022-07-06T14:25:15;21.10;54.90
39875;DHT22;25547;52.530;13.194;2022-07-06T14:27:41;20.90;55.30
39875;DHT22;25547;52.530;13.194;2022-07-06T14:30:07;20.90;55.90
39875;DHT22;25547;52.530;13.194;2022-07-06T14:32:35;20.80;56.00
39875;DHT22;25547;52.530;13.194;2022-07-06T14:35:03;20.80;55.80
39875;DHT22;25547;52.530;13.194;2022-07-06T14:37:29;20.70;56.00
39875;DHT22;25547;52.530;13.194;2022-07-06T14:39:55;20.60;56.40
39875;DHT22;25547;52.530;13.194;2022-07-06T14:42:20;20.60;56.90
39875;DHT22;25547;52.530;13.194;2022-07-06T14:44:48;20.50;57.60
39875;DHT22;25547;52.530;13.194;2022-07-06T14:47:14;20.40;58.10
39875;DHT22;25547;52.530;13.194;2022-07-06T14:49:40;20.40;58.30
39875;DHT22;25547;52.530;13.194;2022-07-06T14:52:06;20.60;58.20
39875;DHT22;25547;52.530;13.194;2022-07-06T14:54:31;20.40;58.60
39875;DHT22;25547;52.530;13.194;2022-07-06T14:56:57;20.40;59.00
39875;DHT22;25547;52.530;13.194;2022-07-06T14:59:25;20.30;58.90
39875;DHT22;25547;52.530;13.194;2022-07-06T15:01:51;20.20;59.10
39875;DHT22;25547;52.530;13.194;2022-07-06T15:04:19;20.30;59.70
39875;DHT22;25547;52.530;13.194;2022-07-06T15:06:47;20.30;59.90
39875;DHT22;25547;52.530;13.194;2022-07-06T15:09:13;20.20;60.40
39875;DHT22;25547;52.530;13.194;2022-07-06T15:11:38;20.10;60.50
39875;DHT22;25547;52.530;13.194;2022-07-06T15:14:04;20.10;60.50
39875;DHT22;25547;52.530;13.194;2022-07-06T15:16:32;20.20;60.30
39875;DHT22;25547;52.530;13.194;2022-07-06T15:18:58;20.30;60.30
39875;DHT22;25547;52.530;13.194;2022-07-06T15:21:26;20.30;60.20
39875;DHT22;25547;52.530;13.194;2022-07-06T15:23:51;20.20;59.80
39875;DHT22;25547;52.530;13.194;2022-07-06T15:26:17;20.30;59.40
39875;DHT22;25547;52.530;13.194;2022-07-06T15:28:43;20.40;59.40
39875;DHT22;25547;52.530;13.194;2022-07-06T15:31:08;20.50;59.30
39875;DHT22;25547;52.530;13.194;2022-07-06T15:33:34;20.50;58.80